createdAt,value
2024-01-22T00:00:30.880Z,1.50
2024-01-22T00:02:57.345Z,1.38
2024-01-22T00:05:23.657Z,1.02
2024-01-22T00:07:50.236Z,1.20
2024-01-22T00:10:16.576Z,0.63
2024-01-22T00:12:42.931Z,0.52
2024-01-22T00:15:09.387Z,1.05
2024-01-22T00:17:35.822Z,1.58
2024-01-22T00:20:02.347Z,1.42
2024-01-22T00:22:28.613Z,1.50
2024-01-22T00:24:54.934Z,0.98
2024-01-22T00:27:21.430Z,0.77
2024-01-22T00:29:47.802Z,0.80
2024-01-22T00:32:14.231Z,1.30
2024-01-22T00:34:40.617Z,0.98
2024-01-22T00:37:07.005Z,0.88
2024-01-22T00:39:33.253Z,0.50
2024-01-22T00:41:59.643Z,1.20
2024-01-22T00:44:26.042Z,0.90
2024-01-22T00:46:52.368Z,1.05
2024-01-22T00:49:18.709Z,1.10
2024-01-22T00:51:45.106Z,0.52
2024-01-22T00:54:11.655Z,1.20
2024-01-22T00:56:37.987Z,1.25
2024-01-22T00:59:04.266Z,1.17
2024-01-22T01:01:33.566Z,1.10
2024-01-22T01:03:59.897Z,1.30
2024-01-22T01:06:26.272Z,1.13
2024-01-22T01:08:52.577Z,1.42
2024-01-22T01:11:18.856Z,0.93
2024-01-22T01:13:45.159Z,0.90
2024-01-22T01:16:11.741Z,1.15
2024-01-22T01:18:38.147Z,0.93
2024-01-22T01:21:04.610Z,1.20
2024-01-22T01:23:30.946Z,0.70
2024-01-22T01:25:57.238Z,0.60
2024-01-22T01:28:24.110Z,0.95
2024-01-22T01:30:50.441Z,1.20
2024-01-22T01:33:16.985Z,0.80
2024-01-22T01:35:45.108Z,0.90
2024-01-22T01:38:11.809Z,0.95
2024-01-22T01:40:40.614Z,0.75
2024-01-22T01:43:06.933Z,1.15
2024-01-22T01:45:33.303Z,1.10
2024-01-22T01:47:59.964Z,1.08
2024-01-22T01:50:26.299Z,0.65
2024-01-22T01:52:53.647Z,1.02
2024-01-22T01:55:21.129Z,0.63
2024-01-22T01:57:51.119Z,0.98
2024-01-22T02:00:20.862Z,0.50
2024-01-22T02:02:47.309Z,1.25
2024-01-22T02:05:17.650Z,0.50
2024-01-22T02:07:43.987Z,1.00
2024-01-22T02:10:14.009Z,1.10
2024-01-22T02:12:40.317Z,0.82
2024-01-22T02:15:07.378Z,1.13
2024-01-22T02:17:33.991Z,1.00
2024-01-22T02:20:00.338Z,0.60
2024-01-22T02:22:26.620Z,0.68
2024-01-22T02:24:53.616Z,0.50
2024-01-22T02:27:22.291Z,1.05
2024-01-22T02:29:48.746Z,1.02
2024-01-22T02:32:15.079Z,0.57
2024-01-22T02:34:41.426Z,1.05
2024-01-22T02:37:07.766Z,0.50
2024-01-22T02:39:34.248Z,0.60
2024-01-22T02:42:00.683Z,0.50
2024-01-22T02:44:27.021Z,0.70
2024-01-22T02:46:53.272Z,0.70
2024-01-22T02:49:19.831Z,0.63
2024-01-22T02:51:46.318Z,0.40
2024-01-22T02:54:15.487Z,0.60
2024-01-22T02:56:41.972Z,0.50
2024-01-22T02:59:08.584Z,0.60
2024-01-22T03:01:34.839Z,0.77
2024-01-22T03:04:01.156Z,0.60
2024-01-22T03:06:27.525Z,0.65
2024-01-22T03:08:53.846Z,0.68
2024-01-22T03:11:20.200Z,0.80
2024-01-22T03:13:46.529Z,0.88
2024-01-22T03:16:12.805Z,0.80
2024-01-22T03:18:39.331Z,0.73
2024-01-22T03:21:06.191Z,0.90
2024-01-22T03:23:32.526Z,0.80
2024-01-22T03:25:58.796Z,0.70
2024-01-22T03:28:25.112Z,0.65
2024-01-22T03:30:51.426Z,0.45
2024-01-22T03:33:18.630Z,0.60
2024-01-22T03:35:45.150Z,0.55
2024-01-22T03:38:12.375Z,0.93
2024-01-22T03:40:38.638Z,0.28
2024-01-22T03:43:04.901Z,0.30
2024-01-22T03:45:31.147Z,0.30
2024-01-22T03:47:57.531Z,0.63
2024-01-22T03:50:23.897Z,0.70
2024-01-22T03:52:50.218Z,0.68
2024-01-22T03:55:16.498Z,0.30
2024-01-22T03:57:42.898Z,0.43
2024-01-22T04:00:09.422Z,0.63
2024-01-22T04:02:35.847Z,0.50
2024-01-22T04:05:02.269Z,0.40
2024-01-22T04:07:28.529Z,0.90
2024-01-22T04:09:54.846Z,0.40
2024-01-22T04:12:21.545Z,0.60
2024-01-22T04:14:48.198Z,0.30
2024-01-22T04:17:14.487Z,0.60
2024-01-22T04:19:42.256Z,0.40
2024-01-22T04:22:08.603Z,0.43
2024-01-22T04:24:38.098Z,0.50
2024-01-22T04:27:04.781Z,0.70
2024-01-22T04:29:31.083Z,0.80
2024-01-22T04:31:57.354Z,0.60
2024-01-22T04:34:23.754Z,0.50
2024-01-22T04:36:50.083Z,0.25
2024-01-22T04:39:17.024Z,0.55
2024-01-22T04:41:43.317Z,0.43
2024-01-22T04:44:09.609Z,0.47
2024-01-22T04:46:35.869Z,0.50
2024-01-22T04:49:02.305Z,0.50
2024-01-22T04:51:28.633Z,0.80
2024-01-22T04:53:55.013Z,0.65
2024-01-22T04:56:21.345Z,0.40
2024-01-22T04:58:47.593Z,0.80
2024-01-22T05:01:14.036Z,0.43
2024-01-22T05:03:40.372Z,0.57
2024-01-22T05:06:07.201Z,0.70
2024-01-22T05:08:33.496Z,0.75
2024-01-22T05:10:59.878Z,0.73
2024-01-22T05:13:26.133Z,0.45
2024-01-22T05:15:52.495Z,0.50
2024-01-22T05:18:21.154Z,0.52
2024-01-22T05:20:49.670Z,0.60
2024-01-22T05:23:16.015Z,0.35
2024-01-22T05:25:42.315Z,0.85
2024-01-22T05:28:08.621Z,0.80
2024-01-22T05:30:35.479Z,0.60
2024-01-22T05:33:01.843Z,0.40
2024-01-22T05:35:28.196Z,1.02
2024-01-22T05:37:54.457Z,0.30
2024-01-22T05:40:20.842Z,0.50
2024-01-22T05:42:47.677Z,0.40
2024-01-22T05:45:14.167Z,0.40
2024-01-22T05:47:40.644Z,0.65
2024-01-22T05:50:07.223Z,0.63
2024-01-22T05:52:33.551Z,0.25
2024-01-22T05:55:00.114Z,0.40
2024-01-22T05:57:26.444Z,0.63
2024-01-22T05:59:52.942Z,0.30
2024-01-22T06:02:19.316Z,0.73
2024-01-22T06:04:45.669Z,0.50
2024-01-22T06:07:12.727Z,0.68
2024-01-22T06:09:39.105Z,0.52
2024-01-22T06:12:05.861Z,0.60
2024-01-22T06:14:32.216Z,0.35
2024-01-22T06:16:58.572Z,0.40
2024-01-22T06:19:24.871Z,0.38
2024-01-22T06:21:51.263Z,0.70
2024-01-22T06:24:17.716Z,0.40
2024-01-22T06:26:44.149Z,0.40
2024-01-22T06:29:14.328Z,0.50
2024-01-22T06:31:42.359Z,0.30
2024-01-22T06:34:08.953Z,0.30
2024-01-22T06:36:35.258Z,0.30
2024-01-22T06:39:01.695Z,0.47
2024-01-22T06:41:28.057Z,0.32
2024-01-22T06:43:54.417Z,0.20
2024-01-22T06:46:20.701Z,0.40
2024-01-22T06:48:47.161Z,0.20
2024-01-22T06:51:13.927Z,0.50
2024-01-22T06:53:40.224Z,0.73
2024-01-22T06:56:07.964Z,0.43
2024-01-22T06:58:34.303Z,0.52
2024-01-22T07:01:00.591Z,0.30
2024-01-22T07:03:28.194Z,0.47
2024-01-22T07:05:55.307Z,0.32
2024-01-22T07:08:21.775Z,0.32
2024-01-22T07:10:49.847Z,0.30
2024-01-22T07:13:16.464Z,0.28
2024-01-22T07:15:42.748Z,1.05
2024-01-22T07:18:09.642Z,0.45
2024-01-22T07:20:36.045Z,0.47
2024-01-22T07:23:02.352Z,0.50
2024-01-22T07:25:28.636Z,0.47
2024-01-22T07:27:54.903Z,0.32
2024-01-22T07:30:21.285Z,0.35
2024-01-22T07:32:49.051Z,0.20
2024-01-22T07:35:16.509Z,0.43
2024-01-22T07:37:45.854Z,0.25
2024-01-22T07:40:12.453Z,0.28
2024-01-22T07:42:40.019Z,0.10
2024-01-22T07:45:07.407Z,0.20
2024-01-22T07:47:34.621Z,0.30
2024-01-22T07:50:01.441Z,0.28
2024-01-22T07:52:27.717Z,0.32
2024-01-22T07:54:54.087Z,0.30
2024-01-22T07:57:20.395Z,0.30
2024-01-22T07:59:47.660Z,0.43
2024-01-22T08:02:14.234Z,0.28
2024-01-22T08:04:40.567Z,0.47
2024-01-22T08:07:07.955Z,0.28
2024-01-22T08:09:34.698Z,0.30
2024-01-22T08:12:01.319Z,0.50
2024-01-22T08:14:27.612Z,0.57
2024-01-22T08:16:53.890Z,0.43
2024-01-22T08:19:20.269Z,0.55
2024-01-22T08:21:46.553Z,0.82
2024-01-22T08:24:13.018Z,0.60
2024-01-22T08:26:39.478Z,0.38
2024-01-22T08:29:06.059Z,0.45
2024-01-22T08:31:32.390Z,1.48
2024-01-22T08:33:59.585Z,0.63
2024-01-22T08:36:26.002Z,1.05
2024-01-22T08:38:52.821Z,0.40
2024-01-22T08:41:19.140Z,0.63
2024-01-22T08:43:45.396Z,0.63
2024-01-22T08:46:11.717Z,0.57
2024-01-22T08:48:38.146Z,0.50
2024-01-22T08:51:04.558Z,0.50
2024-01-22T08:53:30.840Z,0.75
2024-01-22T08:55:59.422Z,0.70
2024-01-22T08:58:25.870Z,0.82
2024-01-22T09:00:52.168Z,0.20
2024-01-22T09:03:19.670Z,0.60
2024-01-22T09:05:46.112Z,0.75
2024-01-22T09:08:12.448Z,0.68
2024-01-22T09:10:39.488Z,0.60
2024-01-22T09:13:06.310Z,0.90
2024-01-22T09:15:32.576Z,0.50
2024-01-22T09:17:59.167Z,0.68
2024-01-22T09:20:25.624Z,0.35
2024-01-22T09:22:51.919Z,0.93
2024-01-22T09:25:20.887Z,0.68
2024-01-22T09:27:48.802Z,0.55
2024-01-22T09:30:19.158Z,0.57
2024-01-22T09:32:46.438Z,0.30
2024-01-22T09:35:14.451Z,0.30
2024-01-22T09:37:40.707Z,0.70
2024-01-22T09:40:11.984Z,0.70
2024-01-22T09:42:40.882Z,0.63
2024-01-22T09:45:09.571Z,0.82
2024-01-22T09:47:36.266Z,0.55
2024-01-22T09:50:02.876Z,1.15
2024-01-22T09:52:29.836Z,1.20
2024-01-22T09:54:57.900Z,0.43
2024-01-22T09:57:25.956Z,0.60
2024-01-22T09:59:53.863Z,1.15
2024-01-22T10:02:21.603Z,0.43
2024-01-22T10:04:47.844Z,0.95
2024-01-22T10:07:15.224Z,0.80
2024-01-22T10:09:42.135Z,1.17
2024-01-22T10:12:08.939Z,0.60
2024-01-22T10:14:38.962Z,0.63
2024-01-22T10:17:16.428Z,1.27
2024-01-22T10:19:43.902Z,0.77
2024-01-22T10:22:10.297Z,0.32
2024-01-22T10:24:36.674Z,0.20
2024-01-22T10:27:15.880Z,0.20
2024-01-22T10:29:46.128Z,0.25
2024-01-22T10:32:12.439Z,0.30
2024-01-22T10:34:47.801Z,0.65
2024-01-22T10:37:14.363Z,0.60
2024-01-22T10:39:42.067Z,0.50
2024-01-22T10:42:08.790Z,0.75
2024-01-22T10:44:36.654Z,0.22
2024-01-22T10:47:04.849Z,0.40
2024-01-22T10:49:32.352Z,0.45
2024-01-22T10:52:00.014Z,0.63
2024-01-22T10:54:33.566Z,1.15
2024-01-22T10:57:10.127Z,0.50
2024-01-22T10:59:38.049Z,1.00
2024-01-22T11:02:06.233Z,0.75
2024-01-22T11:04:43.937Z,0.40
2024-01-22T11:07:11.358Z,1.02
2024-01-22T11:09:38.672Z,1.58
2024-01-22T11:12:09.078Z,1.02
2024-01-22T11:14:36.221Z,0.45
2024-01-22T11:17:03.917Z,1.70
2024-01-22T11:19:30.255Z,1.25
2024-01-22T11:21:58.012Z,1.63
2024-01-22T11:24:25.154Z,1.25
2024-01-22T11:26:51.939Z,1.23
2024-01-22T11:29:22.639Z,1.67
2024-01-22T11:31:49.968Z,1.20
2024-01-22T11:34:35.443Z,2.33
2024-01-22T11:37:01.747Z,1.52
2024-01-22T11:39:48.873Z,1.20
2024-01-22T11:42:29.618Z,1.48
2024-01-22T11:44:57.578Z,1.55
2024-01-22T11:47:24.684Z,1.33
2024-01-22T11:49:59.747Z,1.80
2024-01-22T11:52:26.096Z,1.63
2024-01-22T11:55:10.122Z,1.85
2024-01-22T11:57:37.868Z,1.23
2024-01-22T12:00:06.519Z,1.17
2024-01-22T12:02:33.955Z,1.90
2024-01-22T12:05:04.956Z,1.83
2024-01-22T12:09:57.503Z,1.90
2024-01-22T12:12:27.484Z,3.15
2024-01-22T12:14:59.992Z,2.50
2024-01-22T12:17:26.917Z,2.22
2024-01-22T12:19:57.667Z,2.33
2024-01-22T12:22:25.973Z,1.33
2024-01-22T12:25:03.016Z,1.73
2024-01-22T12:27:29.414Z,1.60
2024-01-22T12:30:02.434Z,1.38
2024-01-22T12:32:29.858Z,1.38
2024-01-22T12:34:57.534Z,2.08
2024-01-22T12:37:25.006Z,3.38
2024-01-22T12:40:04.592Z,2.60
2024-01-22T12:42:31.054Z,1.63
2024-01-22T12:44:59.563Z,1.75
2024-01-22T12:47:30.879Z,2.38
2024-01-22T12:49:58.541Z,1.70
2024-01-22T12:52:25.060Z,1.48
2024-01-22T12:54:51.404Z,2.05
2024-01-22T12:57:17.744Z,1.80
2024-01-22T12:59:50.680Z,1.98
2024-01-22T13:02:17.278Z,2.13
2024-01-22T13:04:43.894Z,2.65
2024-01-22T13:07:10.575Z,1.80
2024-01-22T13:09:36.962Z,1.65
2024-01-22T13:12:03.844Z,1.30
2024-01-22T13:14:32.341Z,1.63
2024-01-22T13:16:59.656Z,2.03
2024-01-22T13:19:26.474Z,1.65
2024-01-22T13:21:53.016Z,1.77
2024-01-22T13:24:20.056Z,1.83
2024-01-22T13:26:46.570Z,1.20
2024-01-22T13:29:13.287Z,1.45
2024-01-22T13:31:39.784Z,1.85
2024-01-22T13:34:06.743Z,1.85
2024-01-22T13:36:33.292Z,1.70
2024-01-22T13:38:59.736Z,1.33
2024-01-22T13:41:30.412Z,1.40
2024-01-22T13:43:57.011Z,0.90
2024-01-22T13:46:26.071Z,1.67
2024-01-22T13:48:53.068Z,1.17
2024-01-22T13:51:20.513Z,1.35
2024-01-22T13:53:47.013Z,1.77
2024-01-22T13:56:13.913Z,1.30
2024-01-22T13:58:40.303Z,1.42
2024-01-22T14:01:09.039Z,0.93
2024-01-22T14:03:35.826Z,1.88
2024-01-22T14:06:02.598Z,2.08
2024-01-22T14:08:29.204Z,1.50
2024-01-22T14:10:55.486Z,1.90
2024-01-22T14:13:23.095Z,1.65
2024-01-22T14:15:49.501Z,1.80
2024-01-22T14:18:16.559Z,1.38
2024-01-22T14:20:43.095Z,1.23
2024-01-22T14:23:09.509Z,1.45
2024-01-22T14:25:36.903Z,1.42
2024-01-22T14:28:03.274Z,1.30
2024-01-22T14:30:30.846Z,1.27
2024-01-22T14:32:57.546Z,1.38
2024-01-22T14:35:26.110Z,1.55
2024-01-22T14:37:53.166Z,1.73
2024-01-22T14:40:19.434Z,1.13
2024-01-22T14:42:48.632Z,1.45
2024-01-22T14:45:15.040Z,1.48
2024-01-22T14:47:42.477Z,1.10
2024-01-22T14:50:09.137Z,1.67
2024-01-22T14:52:35.464Z,1.20
2024-01-22T14:55:01.739Z,1.45
2024-01-22T14:57:28.543Z,1.58
2024-01-22T14:59:55.033Z,1.40
2024-01-22T15:02:22.801Z,1.27
2024-01-22T15:04:50.129Z,1.27
2024-01-22T15:07:16.478Z,1.05
2024-01-22T15:09:42.924Z,1.83
2024-01-22T15:12:09.449Z,1.98
2024-01-22T15:14:36.730Z,2.20
2024-01-22T15:17:03.443Z,1.33
2024-01-22T15:19:30.295Z,1.40
2024-01-22T15:21:58.887Z,1.50
2024-01-22T15:24:26.441Z,2.17
2024-01-22T15:26:54.980Z,1.42
2024-01-22T15:29:21.359Z,1.48
2024-01-22T15:31:48.492Z,1.17
2024-01-22T15:34:15.040Z,1.73
2024-01-22T15:36:41.682Z,1.35
2024-01-22T15:39:09.107Z,1.63
2024-01-22T15:41:36.221Z,1.80
2024-01-22T15:44:04.538Z,1.10
2024-01-22T15:46:31.201Z,1.70
2024-01-22T15:48:57.942Z,1.70
2024-01-22T15:51:24.502Z,1.38
2024-01-22T15:53:50.977Z,0.95
2024-01-22T15:56:17.374Z,2.28
2024-01-22T15:58:43.706Z,1.38
2024-01-22T16:01:10.008Z,1.23
2024-01-22T16:03:36.352Z,1.83
2024-01-22T16:06:05.016Z,1.25
2024-01-22T16:08:31.712Z,1.50
2024-01-22T16:10:58.415Z,1.90
2024-01-22T16:13:24.754Z,2.67
2024-01-22T16:15:51.138Z,1.08
2024-01-22T16:18:18.004Z,1.85
2024-01-22T16:20:45.619Z,2.72
2024-01-22T16:23:11.991Z,1.67
2024-01-22T16:25:38.331Z,1.17
2024-01-22T16:28:07.396Z,2.20
2024-01-22T16:30:41.172Z,1.52
2024-01-22T16:33:08.465Z,1.67
2024-01-22T16:35:34.825Z,1.55
2024-01-22T16:38:01.105Z,1.23
2024-01-22T16:40:27.376Z,1.55
2024-01-22T16:42:53.675Z,1.10
2024-01-22T16:45:20.033Z,1.98
2024-01-22T16:47:46.621Z,1.77
2024-01-22T16:50:13.258Z,1.50
2024-01-22T16:52:39.706Z,1.48
2024-01-22T16:55:06.583Z,2.13
2024-01-22T16:57:33.449Z,1.40
2024-01-22T16:59:59.770Z,2.33
2024-01-22T17:02:26.119Z,1.52
2024-01-22T17:04:52.467Z,0.88
2024-01-22T17:07:19.130Z,1.60
2024-01-22T17:09:46.453Z,1.00
2024-01-22T17:12:13.899Z,1.70
2024-01-22T17:14:40.277Z,1.45
2024-01-22T17:17:06.930Z,1.38
2024-01-22T17:19:33.318Z,3.17
2024-01-22T17:22:00.414Z,1.45
2024-01-22T17:24:26.794Z,1.63
2024-01-22T17:26:54.629Z,2.17
2024-01-22T17:29:21.133Z,1.38
2024-01-22T17:31:47.627Z,1.15
2024-01-22T17:34:14.693Z,1.45
2024-01-22T17:36:41.449Z,1.70
2024-01-22T17:39:09.233Z,2.17
2024-01-22T17:41:35.552Z,2.72
2024-01-22T17:44:01.943Z,1.38
2024-01-22T17:46:30.438Z,1.20
2024-01-22T17:48:59.374Z,2.15
2024-01-22T17:51:26.205Z,1.13
2024-01-22T17:53:52.539Z,1.33
2024-01-22T17:56:18.869Z,2.05
2024-01-22T17:58:45.193Z,1.90
2024-01-22T18:01:11.595Z,2.67
2024-01-22T18:03:37.951Z,1.65
2024-01-22T18:06:04.499Z,0.90
2024-01-22T18:08:30.819Z,1.88
2024-01-22T18:10:57.104Z,1.30
2024-01-22T18:13:23.456Z,1.60
2024-01-22T18:15:50.046Z,2.10
2024-01-22T18:18:16.432Z,1.35
2024-01-22T18:20:42.781Z,1.52
2024-01-22T18:23:09.049Z,2.53
2024-01-22T18:25:35.311Z,1.35
2024-01-22T18:28:03.162Z,1.13
2024-01-22T18:30:29.509Z,1.30
2024-01-22T18:32:55.935Z,1.33
2024-01-22T18:35:22.449Z,1.55
2024-01-22T18:37:48.730Z,1.60
2024-01-22T18:40:15.122Z,1.77
2024-01-22T18:42:41.552Z,1.88
2024-01-22T18:45:11.126Z,1.40
2024-01-22T18:47:39.217Z,1.00
2024-01-22T18:50:06.582Z,2.47
2024-01-22T18:52:32.892Z,1.30
2024-01-22T18:54:59.220Z,1.30
2024-01-22T18:57:25.520Z,1.50
2024-01-22T18:59:51.819Z,1.70
2024-01-22T19:02:18.127Z,1.85
2024-01-22T19:04:44.595Z,1.52
2024-01-22T19:07:13.547Z,1.17
2024-01-22T19:09:39.807Z,1.50
2024-01-22T19:12:06.301Z,2.10
2024-01-22T19:14:32.592Z,1.20
2024-01-22T19:16:58.945Z,1.70
2024-01-22T19:19:25.616Z,1.83
2024-01-22T19:21:52.029Z,2.30
2024-01-22T19:24:18.446Z,1.90
2024-01-22T19:26:44.746Z,1.00
2024-01-22T19:29:11.150Z,1.63
2024-01-22T19:31:42.004Z,1.00
2024-01-22T19:34:08.402Z,1.42
2024-01-22T19:36:34.796Z,1.92
2024-01-22T19:39:01.126Z,1.77
2024-01-22T19:41:27.444Z,1.20
2024-01-22T19:43:54.563Z,0.90
2024-01-22T19:46:20.979Z,1.30
2024-01-22T19:48:47.555Z,2.03
2024-01-22T19:51:14.073Z,2.70
2024-01-22T19:53:40.377Z,1.52
2024-01-22T19:56:06.836Z,1.23
2024-01-22T19:58:33.102Z,1.95
2024-01-22T20:00:59.446Z,2.50
2024-01-22T20:03:25.829Z,1.67
2024-01-22T20:05:52.354Z,1.25
2024-01-22T20:08:19.004Z,1.58
2024-01-22T20:10:45.390Z,1.50
2024-01-22T20:13:11.671Z,1.85
2024-01-22T20:15:38.017Z,1.25
2024-01-22T20:18:05.952Z,1.67
2024-01-22T20:20:32.411Z,1.50
2024-01-22T20:22:58.805Z,1.15
2024-01-22T20:25:25.094Z,1.10
2024-01-22T20:27:51.399Z,1.92
2024-01-22T20:30:17.723Z,1.48
2024-01-22T20:32:44.088Z,2.25
2024-01-22T20:35:10.990Z,1.55
2024-01-22T20:37:38.534Z,1.02
2024-01-22T20:40:05.240Z,1.45
2024-01-22T20:42:31.572Z,1.50
2024-01-22T20:44:58.091Z,1.13
2024-01-22T20:47:24.483Z,0.65
2024-01-22T20:49:50.780Z,1.15
2024-01-22T20:52:17.129Z,1.70
2024-01-22T20:54:43.486Z,1.08
2024-01-22T20:57:09.864Z,1.67
2024-01-22T20:59:36.327Z,1.33
2024-01-22T21:02:02.719Z,1.77
2024-01-22T21:04:30.450Z,1.38
2024-01-22T21:06:56.821Z,1.52
2024-01-22T21:09:23.246Z,1.75
2024-01-22T21:11:50.410Z,2.10
2024-01-22T21:14:17.071Z,1.48
2024-01-22T21:16:43.781Z,1.40
2024-01-22T21:19:10.508Z,0.80
2024-01-22T21:21:40.682Z,1.00
2024-01-22T21:24:07.106Z,0.97
2024-01-22T21:26:34.451Z,1.00
2024-01-22T21:29:00.814Z,0.95
2024-01-22T21:31:27.088Z,2.08
2024-01-22T21:33:53.511Z,1.27
2024-01-22T21:36:19.901Z,2.20
2024-01-22T21:38:46.232Z,1.90
2024-01-22T21:41:15.921Z,0.80
2024-01-22T21:43:42.267Z,1.38
2024-01-22T21:46:08.588Z,1.85
2024-01-22T21:48:35.053Z,1.58
2024-01-22T21:51:01.559Z,0.68
2024-01-22T21:53:27.902Z,1.60
2024-01-22T21:55:54.208Z,1.33
2024-01-22T21:58:20.924Z,1.17
2024-01-22T22:00:47.676Z,1.80
2024-01-22T22:03:14.451Z,0.90
2024-01-22T22:05:41.143Z,1.40
2024-01-22T22:08:08.099Z,1.90
2024-01-22T22:10:34.459Z,1.55
2024-01-22T22:13:01.038Z,1.42
2024-01-22T22:15:27.366Z,1.08
2024-01-22T22:17:54.102Z,1.80
2024-01-22T22:20:21.345Z,1.38
2024-01-22T22:22:47.860Z,1.10
2024-01-22T22:25:14.221Z,1.40
2024-01-22T22:27:41.015Z,2.13
2024-01-22T22:30:08.216Z,1.25
2024-01-22T22:32:34.553Z,1.27
2024-01-22T22:35:00.869Z,1.60
2024-01-22T22:37:27.547Z,1.08
2024-01-22T22:39:53.834Z,1.02
2024-01-22T22:42:20.200Z,1.10
2024-01-22T22:44:46.481Z,0.82
2024-01-22T22:47:12.736Z,1.73
2024-01-22T22:49:39.145Z,1.10
2024-01-22T22:52:05.588Z,1.60
2024-01-22T22:54:32.016Z,1.30
2024-01-22T22:56:58.589Z,2.00
2024-01-22T22:59:25.056Z,0.90
2024-01-22T23:01:51.414Z,1.67
2024-01-22T23:04:17.846Z,1.70
2024-01-22T23:06:44.198Z,2.38
2024-01-22T23:09:10.628Z,1.23
2024-01-22T23:11:36.904Z,2.15
2024-01-22T23:14:04.173Z,1.30
2024-01-22T23:16:30.561Z,0.68
2024-01-22T23:18:56.868Z,1.50
2024-01-22T23:21:23.234Z,1.83
2024-01-22T23:23:49.959Z,1.58
2024-01-22T23:26:16.362Z,1.65
2024-01-22T23:28:42.731Z,2.58
2024-01-22T23:31:08.969Z,1.58
2024-01-22T23:33:41.556Z,1.98
2024-01-22T23:36:09.744Z,0.95
2024-01-22T23:38:36.076Z,1.75
2024-01-22T23:41:02.349Z,1.83
2024-01-22T23:43:28.613Z,1.17
2024-01-22T23:45:54.862Z,1.27
2024-01-22T23:48:22.859Z,2.45
2024-01-22T23:50:49.447Z,0.50
2024-01-22T23:53:15.752Z,1.52
2024-01-22T23:55:42.355Z,2.25
2024-01-22T23:58:10.424Z,1.50
